Time;durP1;ratioP1;P1;durP2;ratioP2;P2;SDS_P1;SDS_P2;PMS_P1;PMS_P2;Temp;Humidity;BMP_temperature;BMP_pressure;BME280_temperature;BME280_humidity;BME280_pressure;Samples;Min_cycle;Max_cycle;Signal;HPM_P1;HPM_P2
2020/12/11 00:00:12;;;;;;;29.98;15.25;;;2.70;74.20;;;;;;5117089;28;20034;-39
2020/12/11 00:02:38;;;;;;;30.23;16.52;;;2.60;74.10;;;;;;5116501;28;20024;-40
2020/12/11 00:05:04;;;;;;;29.88;15.75;;;2.60;74.10;;;;;;5116912;28;20020;-39
2020/12/11 00:07:33;;;;;;;34.42;15.98;;;2.60;74.10;;;;;;5116786;28;20031;-40
2020/12/11 00:09:58;;;;;;;34.58;14.88;;;2.60;74.00;;;;;;5116605;28;20058;-39
2020/12/11 00:12:24;;;;;;;30.25;15.00;;;2.60;74.00;;;;;;5116677;28;20074;-40
2020/12/11 00:14:50;;;;;;;28.80;15.32;;;2.60;74.00;;;;;;5116779;28;20031;-40
2020/12/11 00:17:15;;;;;;;30.33;15.02;;;2.60;74.00;;;;;;5116460;28;20080;-42
2020/12/11 00:19:41;;;;;;;32.13;15.43;;;2.50;74.00;;;;;;5116394;28;20039;-39
2020/12/11 00:22:07;;;;;;;36.38;16.33;;;2.50;74.00;;;;;;5116401;28;20028;-41
2020/12/11 00:24:32;;;;;;;28.90;15.50;;;2.50;74.10;;;;;;5116611;28;20058;-40
2020/12/11 00:26:58;;;;;;;29.08;14.65;;;2.50;74.10;;;;;;5116409;28;20441;-40
2020/12/11 00:29:24;;;;;;;25.25;13.15;;;2.50;74.00;;;;;;5116626;28;20110;-41
2020/12/11 00:31:49;;;;;;;26.35;13.50;;;2.50;74.10;;;;;;5116205;28;20480;-39
2020/12/11 00:34:15;;;;;;;29.45;14.05;;;2.50;74.10;;;;;;5116539;28;20035;-41
2020/12/11 00:36:41;;;;;;;25.88;13.90;;;2.50;74.20;;;;;;5116415;28;20515;-39
2020/12/11 00:39:06;;;;;;;29.58;14.18;;;2.50;74.20;;;;;;5116562;28;20028;-41
2020/12/11 00:41:32;;;;;;;25.08;13.75;;;2.50;74.10;;;;;;5116944;28;20326;-39
2020/12/11 00:43:58;;;;;;;25.80;14.15;;;2.50;74.60;;;;;;5116201;28;20422;-41
2020/12/11 00:46:25;;;;;;;26.50;13.80;;;2.50;74.00;;;;;;5116289;28;20085;-39
2020/12/11 00:48:51;;;;;;;30.15;14.55;;;2.50;73.90;;;;;;5116390;28;20026;-40
2020/12/11 00:51:23;;;;;;;26.23;13.90;;;2.40;73.80;;;;;;5116532;28;20036;-39
2020/12/11 00:53:48;;;;;;;29.98;13.93;;;2.40;73.80;;;;;;5116336;28;20041;-40
2020/12/11 00:56:14;;;;;;;28.23;14.43;;;2.40;73.80;;;;;;5116648;28;20043;-39
2020/12/11 00:58:40;;;;;;;22.63;12.82;;;2.40;73.80;;;;;;5116037;28;20024;-40
2020/12/11 01:01:06;;;;;;;31.73;14.00;;;2.40;73.80;;;;;;5116253;28;20114;-39
2020/12/11 01:03:32;;;;;;;23.50;12.93;;;2.40;73.80;;;;;;5115990;28;20047;-40
2020/12/11 01:05:57;;;;;;;25.98;13.00;;;2.40;73.80;;;;;;5116784;28;20031;-39
2020/12/11 01:08:23;;;;;;;25.90;11.90;;;2.40;73.80;;;;;;5117360;28;20026;-41
2020/12/11 01:10:49;;;;;;;24.67;12.65;;;2.40;73.90;;;;;;5120124;28;20108;-39
2020/12/11 01:13:14;;;;;;;32.10;14.00;;;2.40;73.90;;;;;;5119709;28;20036;-41
2020/12/11 01:15:40;;;;;;;23.75;12.85;;;2.40;73.90;;;;;;5120003;28;20039;-39
2020/12/11 01:18:06;;;;;;;24.38;13.13;;;2.40;73.90;;;;;;5119791;28;20022;-40
2020/12/11 01:20:31;;;;;;;24.98;12.50;;;2.40;73.90;;;;;;5119672;28;20355;-39
2020/12/11 01:22:57;;;;;;;25.05;12.73;;;2.40;73.80;;;;;;5119459;28;20066;-40
2020/12/11 01:25:23;;;;;;;21.35;12.77;;;2.40;73.70;;;;;;5119481;28;20035;-39
2020/12/11 01:27:48;;;;;;;27.55;12.82;;;2.40;73.60;;;;;;5119340;28;20454;-40
2020/12/11 01:30:14;;;;;;;24.98;12.82;;;2.40;73.50;;;;;;5119383;28;20124;-39
2020/12/11 01:32:40;;;;;;;29.75;13.82;;;2.40;73.60;;;;;;5119141;28;20024;-41
2020/12/11 01:35:06;;;;;;;22.88;12.68;;;2.40;73.60;;;;;;5119833;28;20070;-39
2020/12/11 01:37:33;;;;;;;25.55;12.68;;;2.40;73.60;;;;;;5119155;28;20031;-41
2020/12/11 01:39:59;;;;;;;21.48;12.57;;;2.40;73.60;;;;;;5119472;28;20314;-40
2020/12/11 01:42:25;;;;;;;26.30;12.73;;;2.30;73.30;;;;;;5119097;28;20032;-39
2020/12/11 01:44:52;;;;;;;21.73;11.57;;;2.30;73.20;;;;;;5118978;28;20027;-40
2020/12/11 01:47:19;;;;;;;25.63;12.63;;;2.30;73.10;;;;;;5118990;28;20024;-40
2020/12/11 01:49:46;;;;;;;22.80;12.00;;;2.30;73.20;;;;;;5119413;28;20027;-39
2020/12/11 01:52:14;;;;;;;22.40;12.07;;;2.20;73.30;;;;;;5118860;28;20110;-40
2020/12/11 01:54:39;;;;;;;26.85;12.18;;;2.20;73.40;;;;;;5118791;27;20023;-39
2020/12/11 01:57:07;;;;;;;27.38;13.20;;;2.20;73.40;;;;;;5118837;28;20026;-40
2020/12/11 01:59:39;;;;;;;25.05;12.68;;;2.10;73.30;;;;;;5118701;28;20030;-39
2020/12/11 02:02:05;;;;;;;37.78;14.35;;;2.10;73.20;;;;;;5118692;28;20038;-39
2020/12/11 02:04:36;;;;;;;28.88;13.65;;;2.10;73.20;;;;;;5118524;28;20443;-39
2020/12/11 02:07:03;;;;;;;26.17;12.95;;;2.00;73.30;;;;;;5118879;28;20023;-39
2020/12/11 02:09:34;;;;;;;27.33;12.25;;;2.00;73.20;;;;;;5118696;28;20310;-40
2020/12/11 02:12:00;;;;;;;27.17;13.60;;;2.00;73.30;;;;;;5118781;28;20031;-40
2020/12/11 02:14:26;;;;;;;31.38;14.18;;;1.90;73.20;;;;;;5118648;28;20049;-40
2020/12/11 02:16:59;;;;;;;21.52;12.63;;;1.90;73.30;;;;;;5118002;28;20020;-40
2020/12/11 02:19:29;;;;;;;22.35;12.50;;;1.90;73.20;;;;;;5117953;28;20027;-39
2020/12/11 02:22:04;;;;;;;28.07;14.20;;;1.80;73.20;;;;;;5118424;28;20036;-40
2020/12/11 02:24:30;;;;;;;23.20;12.73;;;1.80;73.20;;;;;;5118179;28;20028;-40
2020/12/11 02:26:57;;;;;;;28.45;14.18;;;1.80;73.30;;;;;;5118182;28;20031;-40
2020/12/11 02:29:24;;;;;;;26.67;13.15;;;1.70;73.30;;;;;;5118611;28;20047;-39
2020/12/11 02:31:51;;;;;;;28.75;14.00;;;1.70;73.40;;;;;;5117895;28;20475;-39
2020/12/11 02:34:17;;;;;;;27.23;14.15;;;1.70;73.40;;;;;;5118256;28;20023;-39
2020/12/11 02:36:42;;;;;;;27.55;13.98;;;1.60;73.40;;;;;;5118362;28;20333;-39
2020/12/11 02:39:08;;;;;;;27.85;12.50;;;1.60;73.40;;;;;;5118120;28;20026;-40
2020/12/11 02:41:34;;;;;;;28.10;12.90;;;1.60;73.50;;;;;;5118544;28;20038;-39
2020/12/11 02:44:01;;;;;;;28.00;13.90;;;1.60;73.60;;;;;;5118341;28;20038;-40
2020/12/11 02:46:27;;;;;;;32.60;14.07;;;1.60;73.60;;;;;;5117978;28;20106;-38
2020/12/11 02:48:53;;;;;;;28.40;12.90;;;1.60;73.50;;;;;;5117765;28;20028;-39
2020/12/11 02:51:19;;;;;;;27.45;13.48;;;1.50;73.30;;;;;;5118151;28;20019;-39
2020/12/11 02:53:49;;;;;;;27.45;13.05;;;1.50;73.30;;;;;;5117553;28;20043;-39
2020/12/11 02:56:20;;;;;;;26.88;12.77;;;1.50;73.30;;;;;;5117774;28;20038;-39
2020/12/11 02:58:46;;;;;;;24.67;13.00;;;1.50;73.30;;;;;;5117809;28;20371;-39
2020/12/11 03:01:12;;;;;;;27.50;13.15;;;1.40;73.10;;;;;;5117855;28;20377;-39
2020/12/11 03:03:38;;;;;;;27.08;12.38;;;1.40;73.20;;;;;;5117394;28;20063;-39
2020/12/11 03:06:04;;;;;;;27.60;13.27;;;1.40;73.30;;;;;;5117976;28;20037;-39
2020/12/11 03:08:30;;;;;;;25.58;12.70;;;1.40;73.80;;;;;;5117898;28;20386;-39
2020/12/11 03:10:56;;;;;;;26.50;13.20;;;1.40;73.10;;;;;;5117622;28;20114;-38
2020/12/11 03:13:22;;;;;;;26.20;13.48;;;1.30;73.00;;;;;;5117236;28;20032;-38
2020/12/11 03:15:47;;;;;;;26.10;12.77;;;1.30;72.90;;;;;;5117581;28;20164;-38
2020/12/11 03:18:13;;;;;;;24.08;11.90;;;1.30;72.80;;;;;;5117269;28;20059;-39
2020/12/11 03:20:39;;;;;;;23.23;12.98;;;1.30;72.90;;;;;;5117355;28;20027;-38
2020/12/11 03:23:04;;;;;;;27.48;14.07;;;1.20;72.90;;;;;;5117438;28;20030;-40
2020/12/11 03:25:30;;;;;;;33.60;15.30;;;1.20;72.90;;;;;;5117278;28;20440;-39
2020/12/11 03:27:56;;;;;;;26.25;13.20;;;1.20;73.00;;;;;;5117352;28;20102;-39
2020/12/11 03:30:21;;;;;;;29.15;14.73;;;1.20;73.10;;;;;;5116302;28;20545;-38
2020/12/11 03:32:47;;;;;;;33.15;14.63;;;1.10;73.00;;;;;;5116743;28;20041;-39
2020/12/11 03:35:13;;;;;;;34.47;14.88;;;1.10;73.00;;;;;;5116963;28;20345;-38
2020/12/11 03:37:39;;;;;;;43.35;17.88;;;1.10;73.00;;;;;;5117436;28;20156;-39
2020/12/11 03:40:06;;;;;;;34.28;15.82;;;1.10;73.10;;;;;;5117005;28;20401;-38
2020/12/11 03:42:32;;;;;;;36.50;15.55;;;1.10;73.10;;;;;;5116497;28;20035;-38
2020/12/11 03:44:59;;;;;;;41.20;18.63;;;1.00;72.90;;;;;;5116740;28;20386;-38
2020/12/11 03:47:25;;;;;;;35.53;15.73;;;1.00;73.00;;;;;;5116551;28;20062;-39
2020/12/11 03:49:50;;;;;;;31.98;14.45;;;0.90;73.00;;;;;;5116799;28;20031;-39
2020/12/11 03:52:16;;;;;;;36.03;17.83;;;0.90;73.20;;;;;;5116655;28;20433;-39
2020/12/11 03:54:42;;;;;;;28.42;13.82;;;0.90;73.30;;;;;;5116773;28;20248;-38
2020/12/11 03:57:08;;;;;;;26.20;13.93;;;0.90;73.50;;;;;;5116712;28;20475;-40
2020/12/11 03:59:33;;;;;;;33.45;15.32;;;0.90;73.50;;;;;;5116786;28;20066;-38
2020/12/11 04:01:59;;;;;;;31.50;15.27;;;0.90;73.50;;;;;;5116632;28;20131;-40
2020/12/11 04:04:25;;;;;;;28.17;15.25;;;0.90;73.70;;;;;;5116839;28;20076;-39
2020/12/11 04:06:51;;;;;;;31.80;15.70;;;0.90;73.80;;;;;;5117554;28;20028;-39
2020/12/11 04:09:16;;;;;;;29.63;15.30;;;0.90;73.80;;;;;;5116555;28;20371;-39
2020/12/11 04:11:42;;;;;;;30.67;14.45;;;0.90;73.80;;;;;;5116987;28;20036;-38
2020/12/11 04:14:08;;;;;;;31.67;14.75;;;0.90;73.80;;;;;;5116695;28;20036;-41
2020/12/11 04:16:33;;;;;;;29.48;14.27;;;0.90;73.80;;;;;;5116904;28;20032;-38
2020/12/11 04:19:01;;;;;;;29.65;14.43;;;0.90;73.80;;;;;;5116755;28;20049;-39
2020/12/11 04:21:27;;;;;;;30.58;14.90;;;0.90;73.70;;;;;;5116838;28;20028;-38
2020/12/11 04:23:53;;;;;;;27.75;14.63;;;0.90;73.70;;;;;;5116455;28;20028;-39
2020/12/11 04:26:19;;;;;;;26.85;13.80;;;0.90;73.70;;;;;;5116861;28;20028;-38
2020/12/11 04:28:45;;;;;;;29.40;14.68;;;0.90;73.70;;;;;;5116325;28;20168;-40
2020/12/11 04:31:11;;;;;;;32.80;16.45;;;0.90;73.80;;;;;;5116519;28;20060;-38
2020/12/11 04:33:37;;;;;;;34.85;15.95;;;0.90;73.80;;;;;;5116436;28;20038;-40
2020/12/11 04:36:03;;;;;;;47.63;18.45;;;0.90;73.80;;;;;;5116252;28;20096;-39
2020/12/11 04:38:29;;;;;;;37.90;16.67;;;0.90;73.80;;;;;;5116597;28;20367;-41
2020/12/11 04:40:59;;;;;;;36.00;17.15;;;0.90;73.70;;;;;;5116333;28;20456;-39
2020/12/11 04:43:25;;;;;;;41.05;18.83;;;0.90;73.50;;;;;;5119702;28;20332;-39
2020/12/11 04:45:52;;;;;;;28.60;14.98;;;0.90;73.60;;;;;;5120358;28;20040;-39
2020/12/11 04:48:18;;;;;;;32.47;15.65;;;0.90;73.50;;;;;;5120301;28;20396;-39
2020/12/11 04:50:45;;;;;;;34.42;17.25;;;0.90;73.40;;;;;;5120535;28;20035;-39
2020/12/11 04:53:16;;;;;;;33.15;14.70;;;0.90;73.40;;;;;;5119907;28;20034;-39
2020/12/11 04:55:44;;;;;;;33.92;15.85;;;0.80;73.30;;;;;;5119794;28;20023;-39
2020/12/11 04:58:15;;;;;;;33.60;17.33;;;0.80;73.20;;;;;;5120173;28;20042;-39
2020/12/11 05:00:42;;;;;;;;;;;0.80;73.10;;;;;;5120229;28;20063;-39
2020/12/11 05:03:13;;;;;;;38.15;17.05;;;0.80;73.00;;;;;;5120114;28;19912;-39
2020/12/11 05:05:38;;;;;;;;;;;0.80;73.10;;;;;;5120471;28;20417;-39
2020/12/11 05:08:17;;;;;;;37.55;16.70;;;0.70;73.10;;;;;;5119666;28;19918;-38
2020/12/11 05:10:43;;;;;;;36.00;18.05;;;0.70;73.20;;;;;;5120052;28;20019;-39
2020/12/11 05:13:22;;;;;;;33.42;15.90;;;0.70;73.30;;;;;;5119617;28;20039;-40
2020/12/11 05:16:11;;;;;;;33.20;15.52;;;0.60;73.30;;;;;;5119870;28;20050;-38
2020/12/11 05:18:38;;;;;;;35.55;15.15;;;0.60;73.30;;;;;;5119350;28;20030;-39
2020/12/11 05:21:33;;;;;;;33.30;15.95;;;0.60;73.20;;;;;;5117409;27;20467;-39
2020/12/11 05:24:03;;;;;;;32.58;14.65;;;0.50;73.30;;;;;;5100420;28;20042;-38
2020/12/11 05:26:31;;;;;;;31.33;15.02;;;0.50;73.30;;;;;;5118002;28;20402;-40
2020/12/11 05:28:58;;;;;;;29.88;15.18;;;0.50;73.40;;;;;;5118115;28;20042;-39
2020/12/11 05:31:24;;;;;;;36.67;18.30;;;0.40;73.50;;;;;;5117605;28;20537;-39
2020/12/11 05:34:14;;;;;;;24.55;13.93;;;0.50;73.40;;;;;;5117729;28;20063;-40
2020/12/11 05:36:43;;;;;;;28.23;14.20;;;0.40;73.50;;;;;;5108343;28;20038;-39
2020/12/11 05:39:08;;;;;;;35.25;15.02;;;0.40;73.40;;;;;;5118319;28;20024;-41
2020/12/11 05:41:35;;;;;;;33.97;16.05;;;0.40;73.40;;;;;;5118221;27;20106;-39
2020/12/11 05:44:01;;;;;;;28.38;15.35;;;0.40;73.30;;;;;;5118796;28;20032;-38
2020/12/11 05:46:31;;;;;;;33.28;15.35;;;0.30;73.30;;;;;;5106511;28;20039;-38
2020/12/11 05:48:59;;;;;;;33.22;16.92;;;0.30;73.90;;;;;;5105932;28;20064;-39
2020/12/11 05:51:37;;;;;;;34.03;16.08;;;0.40;73.30;;;;;;5103190;28;20028;-44
2020/12/11 05:54:05;;;;;;;25.25;14.25;;;0.30;73.20;;;;;;5112220;28;20038;-39
2020/12/11 05:56:32;;;;;;;33.35;16.02;;;0.30;73.10;;;;;;5118398;28;20024;-39
2020/12/11 05:58:59;;;;;;;30.00;14.88;;;0.30;73.10;;;;;;5118000;28;20322;-39
2020/12/11 06:01:25;;;;;;;30.80;15.05;;;0.20;73.10;;;;;;5117187;28;20533;-38
2020/12/11 06:03:51;;;;;;;30.00;14.68;;;0.30;73.20;;;;;;5116774;28;20043;-39
2020/12/11 06:06:18;;;;;;;31.73;16.55;;;0.30;73.20;;;;;;5116935;28;20035;-39
2020/12/11 06:08:46;;;;;;;29.98;14.85;;;0.20;73.20;;;;;;5117992;28;20026;-39
2020/12/11 06:11:22;;;;;;;28.40;15.02;;;0.30;73.10;;;;;;5117942;28;20035;-38
2020/12/11 06:13:55;;;;;;;30.67;15.60;;;0.30;73.00;;;;;;5118279;28;20378;-39
2020/12/11 06:16:23;;;;;;;29.13;14.00;;;0.20;73.00;;;;;;5117916;28;20028;-38
2020/12/11 06:19:02;;;;;;;32.83;15.48;;;0.20;73.60;;;;;;5118438;28;20034;-39
2020/12/11 06:21:29;;;;;;;29.10;15.32;;;0.20;73.10;;;;;;5118719;28;20039;-38
2020/12/11 06:23:55;;;;;;;32.95;14.52;;;0.20;73.20;;;;;;5116108;28;20324;-39
2020/12/11 06:26:21;;;;;;;51.90;21.88;;;0.20;73.10;;;;;;5117620;28;20035;-39
2020/12/11 06:28:48;;;;;;;43.45;21.92;;;0.20;73.00;;;;;;5117451;28;20073;-40
2020/12/11 06:31:19;;;;;;;47.83;25.00;;;0.20;73.00;;;;;;5117280;28;20055;-39
2020/12/11 06:33:47;;;;;;;44.53;22.77;;;0.20;73.00;;;;;;5115149;28;20445;-39
2020/12/11 06:36:14;;;;;;;38.15;20.38;;;0.20;73.00;;;;;;5115734;28;20031;-39
2020/12/11 06:38:41;;;;;;;31.58;18.75;;;0.20;73.00;;;;;;5114923;28;20051;-39
2020/12/11 06:41:08;;;;;;;41.00;21.45;;;0.20;72.90;;;;;;5115114;28;20032;-44
2020/12/11 06:43:43;;;;;;;34.80;18.85;;;0.20;72.70;;;;;;5116535;28;20076;-40
2020/12/11 06:46:11;;;;;;;33.20;16.88;;;0.20;72.80;;;;;;5116409;28;20080;-40
2020/12/11 06:48:57;;;;;;;34.42;18.55;;;0.20;72.80;;;;;;5117780;28;20030;-44
2020/12/11 06:51:23;;;;;;;36.90;19.15;;;0.10;72.80;;;;;;5115995;28;20023;-43
2020/12/11 06:53:49;;;;;;;33.60;19.13;;;0.10;72.80;;;;;;5115579;28;20108;-39
2020/12/11 06:56:44;;;;;;;37.95;17.75;;;0.10;72.80;;;;;;5116568;28;20121;-44
2020/12/11 06:59:33;;;;;;;31.13;15.68;;;0.10;72.80;;;;;;5108397;28;20184;-45
2020/12/11 07:02:07;;;;;;;35.80;16.70;;;0.10;72.80;;;;;;5111824;28;20062;-44
2020/12/11 07:04:37;;;;;;;31.98;15.98;;;0.10;72.80;;;;;;5112936;28;20110;-45
2020/12/11 07:07:07;;;;;;;34.13;15.63;;;0.10;72.90;;;;;;5113808;28;20047;-45
2020/12/11 07:09:42;;;;;;;29.13;15.75;;;0.10;72.90;;;;;;5110005;28;20023;-45
2020/12/11 07:12:10;;;;;;;32.55;15.95;;;0.10;73.00;;;;;;5111059;28;20078;-45
2020/12/11 07:14:36;;;;;;;40.22;20.35;;;0.10;73.10;;;;;;5113234;28;20039;-44
2020/12/11 07:17:02;;;;;;;49.13;22.90;;;0.10;73.00;;;;;;5115408;28;20023;-44
2020/12/11 07:19:43;;;;;;;36.63;19.02;;;0.10;72.90;;;;;;5114679;28;20029;-44
2020/12/11 07:22:09;;;;;;;;;;;0.10;72.90;;;;;;5114087;28;20073;-44
2020/12/11 07:24:35;;;;;;;37.00;18.10;;;0.10;72.90;;;;;;5116115;28;19911;-44
2020/12/11 07:27:06;;;;;;;44.33;22.02;;;0.10;72.90;;;;;;5116203;28;20042;-44
2020/12/11 07:29:35;;;;;;;31.25;16.73;;;0.10;72.90;;;;;;5113690;28;20031;-44
2020/12/11 07:32:01;;;;;;;32.75;16.00;;;0.10;72.90;;;;;;5114284;28;20421;-44
2020/12/11 07:34:29;;;;;;;34.53;17.88;;;0.10;72.80;;;;;;5115353;28;20058;-40
2020/12/11 07:36:58;;;;;;;33.35;17.80;;;0.10;72.70;;;;;;5114997;28;20035;-39
2020/12/11 07:39:25;;;;;;;27.88;16.88;;;0.10;72.60;;;;;;5102229;28;20062;-39
2020/12/11 07:41:51;;;;;;;36.55;19.70;;;0.10;72.40;;;;;;5115710;28;20024;-39
2020/12/11 07:44:29;;;;;;;41.35;19.77;;;0.00;72.30;;;;;;5115787;27;20051;-40
2020/12/11 07:46:56;;;;;;;38.05;19.10;;;0.00;72.40;;;;;;5116494;28;20371;-39
2020/12/11 07:49:34;;;;;;;33.10;17.40;;;0.00;72.60;;;;;;5114812;28;20027;-39
2020/12/11 07:52:00;;;;;;;37.20;19.52;;;0.00;72.40;;;;;;5115711;28;20035;-39
2020/12/11 07:54:34;;;;;;;34.78;19.75;;;0.00;72.40;;;;;;5115354;28;20032;-40
2020/12/11 07:57:17;;;;;;;35.13;16.67;;;-0.10;72.50;;;;;;5115910;28;20043;-39
2020/12/11 07:59:59;;;;;;;33.65;17.75;;;-0.10;72.60;;;;;;5115619;28;20386;-39
2020/12/11 08:02:25;;;;;;;33.35;17.25;;;-0.10;72.60;;;;;;5115670;28;20047;-40
2020/12/11 08:04:52;;;;;;;33.03;16.70;;;-0.10;72.70;;;;;;5115124;28;20126;-39
2020/12/11 08:07:29;;;;;;;29.20;15.63;;;-0.10;72.60;;;;;;5116014;28;20024;-40
2020/12/11 08:10:22;;;;;;;36.80;17.05;;;-0.10;72.70;;;;;;5115837;28;20034;-39
2020/12/11 08:12:49;;;;;;;30.90;16.98;;;0.00;72.80;;;;;;5112615;28;20035;-39
2020/12/11 08:15:31;;;;;;;37.75;18.33;;;-0.10;72.50;;;;;;5114951;28;20035;-39
2020/12/11 08:18:14;;;;;;;30.35;16.35;;;0.00;72.60;;;;;;5118534;28;20054;-39
2020/12/11 08:20:50;;;;;;;35.00;17.00;;;0.00;72.80;;;;;;5119663;28;20041;-39
2020/12/11 08:23:18;;;;;;;38.70;21.50;;;0.00;72.80;;;;;;5118115;28;20595;-40
2020/12/11 08:25:45;;;;;;;50.10;28.77;;;0.00;72.70;;;;;;5118811;28;20038;-43
2020/12/11 08:28:10;;;;;;;55.70;32.38;;;0.00;72.70;;;;;;5118284;28;20028;-44
2020/12/11 08:30:36;;;;;;;57.60;34.65;;;0.00;72.90;;;;;;5117019;28;20051;-43
2020/12/11 08:33:12;;;;;;;59.70;34.42;;;0.10;73.10;;;;;;5117796;28;20334;-46
2020/12/11 08:35:38;;;;;;;143.52;72.95;;;0.10;73.20;;;;;;5117534;28;20020;-44
2020/12/11 08:38:05;;;;;;;151.48;63.95;;;0.10;73.40;;;;;;5118407;27;20463;-43
2020/12/11 08:40:44;;;;;;;90.63;52.00;;;0.10;72.80;;;;;;5110138;28;20027;-43
2020/12/11 08:51:40;;;;;;;195.27;97.47;;;0.10;72.30;;;;;;5115396;28;20088;-40
2020/12/11 08:54:09;;;;;;;65.93;32.00;;;0.10;72.40;;;;;;5106702;28;20039;-40
2020/12/11 08:56:36;;;;;;;58.22;32.00;;;0.10;72.40;;;;;;5114074;28;20019;-40
2020/12/11 08:59:04;;;;;;;51.08;28.98;;;0.10;72.40;;;;;;5112981;28;20057;-40
2020/12/11 09:01:31;;;;;;;33.25;19.88;;;0.10;72.50;;;;;;5114265;28;20024;-41
2020/12/11 09:03:57;;;;;;;54.97;27.95;;;0.10;72.60;;;;;;5090813;28;20035;-39
2020/12/11 09:06:25;;;;;;;52.55;27.42;;;0.10;72.60;;;;;;5111722;28;20110;-40
2020/12/11 09:08:51;;;;;;;58.30;30.65;;;0.10;72.80;;;;;;5094603;28;20132;-44
2020/12/11 09:11:17;;;;;;;66.82;33.03;;;0.10;72.70;;;;;;5102560;28;20114;-44
2020/12/11 09:13:43;;;;;;;63.42;33.95;;;0.10;72.50;;;;;;5106513;28;20122;-45
2020/12/11 09:16:09;;;;;;;117.28;53.70;;;0.10;72.60;;;;;;5114434;28;20037;-44
2020/12/11 09:18:35;;;;;;;38.90;21.42;;;0.10;72.50;;;;;;5116147;28;20114;-44
2020/12/11 09:21:01;;;;;;;30.98;17.13;;;0.10;72.40;;;;;;5116735;28;20122;-44
2020/12/11 09:23:26;;;;;;;37.65;19.38;;;0.10;72.40;;;;;;5117833;28;20069;-44
2020/12/11 09:25:52;;;;;;;33.58;19.00;;;0.10;72.30;;;;;;5116494;28;20421;-43
2020/12/11 09:28:20;;;;;;;32.70;17.58;;;0.10;72.30;;;;;;5108699;28;20024;-43
2020/12/11 09:30:47;;;;;;;33.50;18.02;;;0.10;72.40;;;;;;5116353;28;20051;-43
2020/12/11 09:33:17;;;;;;;34.42;19.30;;;0.10;72.70;;;;;;5116239;28;20365;-44
2020/12/11 09:35:43;;;;;;;34.58;17.88;;;0.10;72.80;;;;;;5110718;28;20039;-44
2020/12/11 09:38:09;;;;;;;30.02;16.38;;;0.10;72.70;;;;;;5116309;28;20713;-45
2020/12/11 09:44:03;;;;;;;35.03;20.70;;;0.10;72.50;;;;;;5117115;28;20023;-43
2020/12/11 09:48:25;;;;;;;29.60;15.57;;;0.10;72.30;;;;;;5117460;28;20023;-43
2020/12/11 09:56:04;;;;;;;28.00;16.27;;;0.00;72.30;;;;;;5075911;28;20036;-43
2020/12/11 09:58:32;;;;;;;31.67;17.45;;;0.00;72.40;;;;;;5116757;27;20019;-43
2020/12/11 10:00:58;;;;;;;31.85;17.70;;;0.00;72.50;;;;;;5107031;28;20023;-43
2020/12/11 10:03:30;;;;;;;32.17;17.00;;;0.00;72.70;;;;;;5116685;28;20035;-43
2020/12/11 10:05:56;;;;;;;28.88;16.02;;;0.00;72.80;;;;;;5115673;28;20721;-42
2020/12/11 10:08:22;;;;;;;32.08;16.23;;;0.10;73.50;;;;;;5116560;28;20027;-42
2020/12/11 10:10:47;;;;;;;31.10;16.15;;;0.10;73.00;;;;;;5103402;28;20156;-42
2020/12/11 10:13:13;;;;;;;31.55;16.88;;;0.10;73.00;;;;;;5116531;28;20039;-42
2020/12/11 10:15:39;;;;;;;27.55;16.17;;;0.10;72.90;;;;;;5117107;28;20020;-42
2020/12/11 10:18:05;;;;;;;29.98;17.75;;;0.20;72.80;;;;;;5116316;28;20607;-43
2020/12/11 10:20:32;;;;;;;34.08;19.15;;;0.20;72.80;;;;;;5115658;28;20039;-42
2020/12/11 10:22:58;;;;;;;31.58;18.58;;;0.20;72.60;;;;;;5117621;28;20106;-43
2020/12/11 10:25:24;;;;;;;40.20;21.23;;;0.20;72.40;;;;;;5116881;28;20092;-42
2020/12/11 10:27:51;;;;;;;37.20;18.67;;;0.20;72.40;;;;;;5114757;28;20050;-43
2020/12/11 10:30:17;;;;;;;29.02;17.60;;;0.20;72.50;;;;;;5110531;28;20047;-42
2020/12/11 10:32:43;;;;;;;28.85;16.02;;;0.20;72.40;;;;;;5112249;28;20073;-43
2020/12/11 10:35:09;;;;;;;31.38;17.83;;;0.20;72.30;;;;;;5115125;28;20035;-42
2020/12/11 10:37:35;;;;;;;33.10;17.63;;;0.20;72.40;;;;;;5113438;28;20038;-44
2020/12/11 10:40:03;;;;;;;29.45;17.05;;;0.20;72.50;;;;;;5115850;28;20122;-39
2020/12/11 10:42:30;;;;;;;32.55;17.52;;;0.20;72.70;;;;;;5116970;28;20027;-43
2020/12/11 10:44:56;;;;;;;36.85;20.95;;;0.20;72.80;;;;;;5115906;28;20034;-44
2020/12/11 10:47:22;;;;;;;30.50;16.92;;;0.20;72.70;;;;;;5116048;28;20019;-43
2020/12/11 10:49:48;;;;;;;31.70;17.25;;;0.20;72.60;;;;;;5114822;28;20763;-43
2020/12/11 10:52:14;;;;;;;32.05;16.52;;;0.20;72.60;;;;;;5114073;28;20031;-42
2020/12/11 10:54:40;;;;;;;34.17;17.80;;;0.20;72.50;;;;;;5109497;28;20055;-42
2020/12/11 10:57:06;;;;;;;32.25;17.35;;;0.20;72.50;;;;;;5100325;28;20019;-43
2020/12/11 10:59:31;;;;;;;30.40;17.10;;;0.20;72.30;;;;;;5113253;28;20034;-43
2020/12/11 11:02:00;;;;;;;30.02;17.48;;;0.20;72.40;;;;;;5114942;28;20024;-44
2020/12/11 11:04:28;;;;;;;34.15;19.13;;;0.20;72.30;;;;;;5112836;28;20027;-43
2020/12/11 11:10:41;;;;;;;27.58;16.35;;;0.10;72.40;;;;;;5105405;28;20028;-44
2020/12/11 11:12:46;;;;;;;27.13;16.20;;;0.20;72.60;;;;;;5107115;28;20035;-43
2020/12/11 11:15:40;;;;;;;33.38;18.40;;;0.10;72.50;;;;;;5105459;28;20050;-43
2020/12/11 11:21:00;;;;;;;36.38;18.80;;;0.10;72.80;;;;;;5114789;28;20130;-43
2020/12/11 11:26:14;;;;;;;33.03;18.35;;;0.10;72.90;;;;;;5096472;28;20067;-42
2020/12/11 11:28:40;;;;;;;38.50;19.27;;;0.20;73.00;;;;;;5094961;28;20071;-43
2020/12/11 11:31:10;;;;;;;36.13;20.13;;;0.20;73.00;;;;;;5093740;28;20071;-42
2020/12/11 11:33:36;;;;;;;34.03;17.85;;;0.20;73.00;;;;;;5108554;28;20043;-43
2020/12/11 11:36:02;;;;;;;32.83;19.67;;;0.20;73.00;;;;;;5113232;28;20031;-43
2020/12/11 11:38:27;;;;;;;33.97;20.15;;;0.20;73.00;;;;;;5114717;28;20034;-43
2020/12/11 11:40:53;;;;;;;36.78;19.48;;;0.20;73.10;;;;;;5115385;28;20054;-43
2020/12/11 11:43:28;;;;;;;41.25;20.77;;;0.20;73.00;;;;;;5114587;28;20102;-42
2020/12/11 11:45:54;;;;;;;38.20;18.75;;;0.20;73.10;;;;;;5116760;28;20273;-39
2020/12/11 11:48:20;;;;;;;36.72;20.15;;;0.30;73.10;;;;;;5114451;28;20489;-41
2020/12/11 11:50:59;;;;;;;35.20;17.80;;;0.30;73.10;;;;;;5105004;28;20345;-39
2020/12/11 11:53:27;;;;;;;36.13;19.98;;;0.30;73.10;;;;;;5095527;28;20036;-39
2020/12/11 11:55:53;;;;;;;32.78;19.73;;;0.30;73.10;;;;;;5093526;28;20028;-39
2020/12/11 11:58:20;;;;;;;38.17;20.50;;;0.30;73.30;;;;;;5096789;28;20503;-40
2020/12/11 12:00:46;;;;;;;40.65;21.23;;;0.30;73.20;;;;;;5098298;28;20449;-42
2020/12/11 12:03:11;;;;;;;40.20;21.05;;;0.40;73.20;;;;;;5114137;28;20059;-42
2020/12/11 12:05:37;;;;;;;34.85;19.70;;;0.40;73.20;;;;;;5114950;28;20118;-42
2020/12/11 12:08:03;;;;;;;46.10;23.10;;;0.40;73.20;;;;;;5113246;28;20032;-43
2020/12/11 12:10:29;;;;;;;35.85;20.42;;;0.40;73.20;;;;;;5114456;28;20031;-42
2020/12/11 12:12:55;;;;;;;39.47;21.27;;;0.40;73.20;;;;;;5115633;28;20126;-43
2020/12/11 12:15:23;;;;;;;40.65;23.88;;;0.50;73.20;;;;;;5115047;28;20058;-42
2020/12/11 12:18:08;;;;;;;47.13;27.73;;;0.50;73.20;;;;;;5108641;28;20039;-39
2020/12/11 12:31:05;;;;;;;34.42;18.15;;;0.60;73.10;;;;;;5114052;28;20049;-39
2020/12/11 12:42:19;;;;;;;49.00;25.40;;;0.60;72.80;;;;;;5073205;28;20360;-39
2020/12/11 12:43:59;;;;;;;51.70;27.13;;;0.60;72.70;;;;;;5104420;28;20027;-38
2020/12/11 12:46:26;;;;;;;36.63;18.33;;;0.60;72.70;;;;;;5115527;28;20081;-38
2020/12/11 12:48:51;;;;;;;51.72;29.08;;;0.60;72.70;;;;;;5106649;28;20360;-39
2020/12/11 12:51:17;;;;;;;63.20;31.08;;;0.60;72.70;;;;;;5102982;28;20034;-38
2020/12/11 12:53:43;;;;;;;54.30;30.17;;;0.70;72.80;;;;;;5114080;28;20056;-41
2020/12/11 12:59:00;;;;;;;41.60;24.42;;;0.70;72.80;;;;;;5115042;28;20022;-38
2020/12/11 13:01:51;;;;;;;43.72;26.35;;;0.70;72.70;;;;;;5114766;28;20039;-38
2020/12/11 13:06:48;;;;;;;34.65;16.45;;;0.70;72.70;;;;;;5112569;28;20276;-38
2020/12/11 13:09:18;;;;;;;33.15;18.50;;;0.70;72.70;;;;;;5096774;28;20028;-38
2020/12/11 13:11:49;;;;;;;27.02;15.95;;;0.70;73.00;;;;;;5110591;28;20092;-38
2020/12/11 13:14:15;;;;;;;34.28;17.65;;;0.70;72.90;;;;;;5119133;28;20058;-42
2020/12/11 13:16:41;;;;;;;30.48;15.90;;;0.70;72.80;;;;;;5118712;28;20055;-39
2020/12/11 13:19:10;;;;;;;27.77;16.88;;;0.70;73.00;;;;;;5118132;28;20016;-42
2020/12/11 13:21:41;;;;;;;32.15;17.27;;;0.70;72.90;;;;;;5116772;28;20031;-42
2020/12/11 13:26:54;;;;;;;33.70;18.52;;;0.80;72.70;;;;;;5118399;28;20034;-42
2020/12/11 13:29:23;;;;;;;37.25;20.23;;;0.70;72.60;;;;;;5117605;28;20015;-39
2020/12/11 13:31:49;;;;;;;29.25;16.02;;;0.70;72.70;;;;;;5118000;28;20055;-39
2020/12/11 13:34:14;;;;;;;30.17;16.85;;;0.70;72.80;;;;;;5117946;28;20058;-42
2020/12/11 13:36:44;;;;;;;32.42;19.02;;;0.70;72.90;;;;;;5116577;28;20042;-41